John Day, OR (97845)

8:17 PM PST on February 07, 2016 (GMT -0800)
Grant County Regional | | Change Station
CLOSE
Current Station
Airport
Location: Grant County,
Elevation: 3698 ft
Nearby Weather Stations

Elev 3698 ft 44.40 °N, 118.96 °W | Updated 22 minutes ago

Clear
Clear
43 °F
Feels Like 39 °F
N
7
Wind Variable Wind from SE

Today
High -- | Low -- °F
--% Chance of Precip.
Yesterday
High -- | Low -- °F
Precip. -- in
Pressure 30.60 in
Visibility 10.0 miles
Clouds Clear
Windchill 39 °F
Dew Point 32 °F
Humidity 65%
Rainfall 0.00 in
Snow Depth Not available.
7:07 AM 5:13 PM
Waning Crescent, 0% visible
METAR KGCD 080355Z AUTO 13006KT 10SM CLR 06/00 A3060 RMK AO2 T00620001
Pressure 30.60 in
Visibility 10.0 miles
Clouds Clear
Windchill 39 °F
Dew Point 32 °F
Humidity 65%
Rainfall 0.00 in
Snow Depth Not available.
7:07 AM 5:13 PM
Waning Crescent, 0% visible
METAR KGCD 080355Z AUTO 13006KT 10SM CLR 06/00 A3060 RMK AO2 T00620001

10-Day Weather Forecast

Almanac

Astronomy

Feb. 07, 2016 Rise Set
Actual Time
Civil Twilight
Nautical Twilight
Astronomical Twilight
Moon
Length of Visible Light
Length of Day
Tomorrow will be .
, % of the Moon is Illuminated

Today's Extremes

State Highs State Lows

Community

WunderPhotos

Upload Photos

1,891,379 photos uploaded!

WunderBlog® & News

Nearby

Air Quality

  Air Quality AQ Index Pollutant
Not available.

Snow Depth

Station Depth Elevation

Earthquake Activity

City Distance Mag. Time & Date
Minimum magnitude displayed is 2.5.

Coastal Water Temperatures

Place Temperature

Stations

Nearby Weather Stations

Station Location Temp. Windchill Dew Point Humidity Wind Precip. Elev Updated Type
                   

Watches & Warnings

There are currently no watches in effect.